createdAt,value
2018-01-02T00:01:48.317Z,99238.20
2018-01-02T00:04:15.788Z,99253.81
2018-01-02T00:06:43.252Z,99249.91
2018-01-02T00:09:10.729Z,99265.72
2018-01-02T00:11:38.176Z,99263.61
2018-01-02T00:14:05.653Z,99277.92
2018-01-02T00:16:33.153Z,99285.48
2018-01-02T00:19:00.641Z,99294.27
2018-01-02T00:21:28.184Z,99297.56
2018-01-02T00:23:55.656Z,99311.73
2018-01-02T00:26:23.145Z,99308.92
2018-01-02T00:28:50.711Z,99318.05
2018-01-02T00:31:18.165Z,99318.92
2018-01-02T00:33:45.624Z,99328.28
2018-01-02T00:36:13.100Z,99334.20
2018-01-02T00:38:40.548Z,99341.48
2018-01-02T00:41:08.023Z,99337.48
2018-01-02T00:43:35.476Z,99342.86
2018-01-02T00:46:02.960Z,99353.05
2018-01-02T00:48:30.408Z,99352.95
2018-01-02T00:50:57.881Z,99368.16
2018-01-02T00:53:25.328Z,99373.09
2018-01-02T00:55:52.805Z,99373.02
2018-01-02T00:58:20.265Z,99379.88
2018-01-02T01:00:47.949Z,99381.38
2018-01-02T01:03:15.403Z,99392.08
2018-01-02T01:05:42.874Z,99387.41
2018-01-02T01:08:10.375Z,99394.55
2018-01-02T01:10:37.837Z,99400.14
2018-01-02T01:13:05.312Z,99405.18
2018-01-02T01:15:32.763Z,99416.48
2018-01-02T01:18:00.240Z,99424.30
2018-01-02T01:20:27.678Z,99435.91
2018-01-02T01:22:55.135Z,99434.63
2018-01-02T01:25:22.628Z,99435.93
2018-01-02T01:27:50.098Z,99444.11
2018-01-02T01:30:17.541Z,99455.64
2018-01-02T01:32:45.031Z,99461.48
2018-01-02T01:35:12.474Z,99464.66
2018-01-02T01:37:39.950Z,99458.98
2018-01-02T01:40:07.450Z,99474.25
2018-01-02T01:42:34.895Z,99477.24
2018-01-02T01:45:02.360Z,99488.16
2018-01-02T01:47:29.824Z,99494.53
2018-01-02T01:49:57.300Z,99493.52
2018-01-02T01:52:24.760Z,99500.75
2018-01-02T01:54:52.242Z,99498.97
2018-01-02T01:57:19.683Z,99505.64
2018-01-02T01:59:47.245Z,99508.31
2018-01-02T02:02:14.759Z,99510.43
2018-01-02T02:04:42.225Z,99509.75
2018-01-02T02:07:09.690Z,99513.23
2018-01-02T02:09:37.134Z,99509.83
2018-01-02T02:12:04.610Z,99516.72
2018-01-02T02:14:32.052Z,99526.95
2018-01-02T02:16:59.529Z,99531.08
2018-01-02T02:19:26.975Z,99526.12
2018-01-02T02:21:54.448Z,99523.91
2018-01-02T02:24:21.898Z,99526.08
2018-01-02T02:26:49.433Z,99534.49
2018-01-02T02:29:16.894Z,99544.67
2018-01-02T02:31:44.365Z,99542.73
2018-01-02T02:34:11.818Z,99533.49
2018-01-02T02:36:39.292Z,99544.66
2018-01-02T02:39:06.758Z,99538.09
2018-01-02T02:41:34.209Z,99548.11
2018-01-02T02:44:01.724Z,99542.19
2018-01-02T02:46:29.652Z,99547.69
2018-01-02T02:48:57.229Z,99553.53
2018-01-02T02:51:26.150Z,99551.55
2018-01-02T02:53:53.674Z,99552.75
2018-01-02T02:56:21.140Z,99568.71
2018-01-02T02:58:48.598Z,99560.18
2018-01-02T03:01:16.429Z,99559.93
2018-01-02T03:03:43.936Z,99556.28
2018-01-02T03:06:11.400Z,99563.40
2018-01-02T03:08:38.963Z,99564.50
2018-01-02T03:11:06.403Z,99565.63
2018-01-02T03:13:33.971Z,99559.89
2018-01-02T03:16:01.456Z,99565.28
2018-01-02T03:18:28.944Z,99563.36
2018-01-02T03:20:56.441Z,99566.61
2018-01-02T03:23:23.909Z,99568.84
2018-01-02T03:25:51.377Z,99573.34
2018-01-02T03:28:18.824Z,99575.47
2018-01-02T03:30:46.305Z,99578.05
2018-01-02T03:33:13.784Z,99576.61
2018-01-02T03:35:41.272Z,99584.84
2018-01-02T03:38:09.467Z,99583.38
2018-01-02T03:40:36.907Z,99581.50
2018-01-02T03:43:04.377Z,99581.53
2018-01-02T03:45:31.828Z,99579.77
2018-01-02T03:47:59.887Z,99586.89
2018-01-02T03:50:27.536Z,99583.77
2018-01-02T03:52:55.066Z,99588.55
2018-01-02T03:55:22.512Z,99589.67
2018-01-02T03:57:50.132Z,99588.09
2018-01-02T04:00:17.689Z,99594.98
2018-01-02T04:02:45.326Z,99592.59
2018-01-02T04:05:12.778Z,99593.38
2018-01-02T04:07:40.443Z,99606.73
2018-01-02T04:10:08.028Z,99600.22
2018-01-02T04:12:35.744Z,99601.59
2018-01-02T04:15:03.325Z,99604.55
2018-01-02T04:17:30.803Z,99614.27
2018-01-02T04:19:58.297Z,99615.62
2018-01-02T04:22:25.788Z,99614.63
2018-01-02T04:24:53.472Z,99622.16
2018-01-02T04:27:20.941Z,99613.81
2018-01-02T04:29:48.495Z,99611.38
2018-01-02T04:32:15.982Z,99610.39
2018-01-02T04:34:43.595Z,99616.22
2018-01-02T04:37:11.145Z,99609.81
2018-01-02T04:39:38.788Z,99608.17
2018-01-02T04:42:06.340Z,99608.69
2018-01-02T04:44:33.842Z,99608.50
2018-01-02T04:47:01.444Z,99617.11
2018-01-02T04:49:29.032Z,99614.75
2018-01-02T04:51:56.581Z,99626.11
2018-01-02T04:54:24.077Z,99621.77
2018-01-02T04:56:51.583Z,99624.31
2018-01-02T04:59:19.291Z,99620.80
2018-01-02T05:01:46.919Z,99626.28
2018-01-02T05:04:14.428Z,99625.95
2018-01-02T05:06:41.904Z,99638.48
2018-01-02T05:09:09.384Z,99642.70
2018-01-02T05:11:36.955Z,99647.90
2018-01-02T05:14:04.424Z,99651.73
2018-01-02T05:16:31.878Z,99659.89
2018-01-02T05:18:59.528Z,99660.70
2018-01-02T05:21:27.011Z,99669.95
2018-01-02T05:23:54.484Z,99660.16
2018-01-02T05:26:21.955Z,99666.55
2018-01-02T05:28:49.436Z,99667.94
2018-01-02T05:31:16.974Z,99681.23
2018-01-02T05:33:44.447Z,99678.13
2018-01-02T05:36:11.923Z,99676.64
2018-01-02T05:38:39.406Z,99685.39
2018-01-02T05:41:06.878Z,99691.30
2018-01-02T05:43:34.396Z,99698.34
2018-01-02T05:46:01.855Z,99705.11
2018-01-02T05:48:29.320Z,99705.42
2018-01-02T05:50:56.810Z,99702.03
2018-01-02T05:53:24.250Z,99706.18
2018-01-02T05:55:51.723Z,99709.34
2018-01-02T05:58:19.172Z,99721.54
2018-01-02T06:00:46.664Z,99716.65
2018-01-02T06:03:14.137Z,99726.80
2018-01-02T06:05:41.631Z,99734.04
2018-01-02T06:08:09.086Z,99744.02
2018-01-02T06:10:36.683Z,99750.90
2018-01-02T06:13:04.142Z,99754.94
2018-01-02T06:15:31.635Z,99752.95
2018-01-02T06:17:59.107Z,99760.13
2018-01-02T06:20:26.633Z,99761.05
2018-01-02T06:22:54.088Z,99762.88
2018-01-02T06:25:21.536Z,99762.99
2018-01-02T06:27:49.148Z,99767.32
2018-01-02T06:30:16.587Z,99775.31
2018-01-02T06:32:44.047Z,99772.86
2018-01-02T06:35:11.598Z,99776.25
2018-01-02T06:37:39.099Z,99775.98
2018-01-02T06:40:06.563Z,99784.97
2018-01-02T06:42:34.027Z,99799.30
2018-01-02T06:45:01.481Z,99806.11
2018-01-02T06:47:28.987Z,99811.17
2018-01-02T06:49:56.460Z,99816.55
2018-01-02T06:52:23.956Z,99829.59
2018-01-02T06:54:51.395Z,99844.45
2018-01-02T06:57:18.873Z,99839.73
2018-01-02T06:59:46.319Z,99845.70
2018-01-02T07:02:13.788Z,99848.55
2018-01-02T07:04:41.255Z,99857.03
2018-01-02T07:07:08.735Z,99858.96
2018-01-02T07:09:36.242Z,99861.02
2018-01-02T07:12:03.731Z,99864.34
2018-01-02T07:14:31.256Z,99871.58
2018-01-02T07:16:58.717Z,99881.22
2018-01-02T07:19:26.208Z,99880.65
2018-01-02T07:21:53.672Z,99887.69
2018-01-02T07:24:21.151Z,99890.36
2018-01-02T07:26:48.600Z,99894.75
2018-01-02T07:29:16.043Z,99899.25
2018-01-02T07:31:43.554Z,99913.66
2018-01-02T07:34:11.945Z,99912.55
2018-01-02T07:36:39.445Z,99923.19
2018-01-02T07:39:06.896Z,99924.36
2018-01-02T07:41:34.362Z,99920.84
2018-01-02T07:44:01.813Z,99933.20
2018-01-02T07:46:29.275Z,99935.17
2018-01-02T07:48:56.716Z,99935.35
2018-01-02T07:51:24.187Z,99944.14
2018-01-02T07:53:51.658Z,99946.41
2018-01-02T07:56:19.103Z,99959.12
2018-01-02T07:58:46.651Z,99973.80
2018-01-02T08:01:14.086Z,99988.97
2018-01-02T08:03:41.583Z,99987.30
2018-01-02T08:06:09.041Z,100000.29
2018-01-02T08:08:36.531Z,100006.08
2018-01-02T08:11:03.996Z,100018.88
2018-01-02T08:13:31.476Z,100025.65
2018-01-02T08:15:58.919Z,100025.56
2018-01-02T08:18:26.384Z,100042.11
2018-01-02T08:20:53.826Z,100057.07
2018-01-02T08:23:21.365Z,100059.98
2018-01-02T08:25:48.847Z,100072.75
2018-01-02T08:28:16.302Z,100075.43
2018-01-02T08:30:43.772Z,100081.82
2018-01-02T08:33:11.310Z,100091.22
2018-01-02T08:35:38.791Z,100096.08
2018-01-02T08:38:06.240Z,100106.05
2018-01-02T08:40:33.764Z,100116.88
2018-01-02T08:43:01.213Z,100117.14
2018-01-02T08:45:28.691Z,100123.20
2018-01-02T08:47:56.240Z,100132.20
2018-01-02T08:50:23.766Z,100136.53
2018-01-02T08:52:51.206Z,100134.86
2018-01-02T08:55:18.675Z,100140.19
2018-01-02T08:57:46.133Z,100137.00
2018-01-02T09:00:13.679Z,100146.84
2018-01-02T09:02:41.996Z,100147.46
2018-01-02T09:05:09.475Z,100153.35
2018-01-02T09:07:36.968Z,100162.05
2018-01-02T09:10:04.423Z,100168.70
2018-01-02T09:12:48.538Z,100174.87
2018-01-02T09:15:15.992Z,100178.40
2018-01-02T09:17:43.517Z,100180.40
2018-01-02T09:20:10.980Z,100185.63
2018-01-02T09:22:39.528Z,100183.92
2018-01-02T09:25:07.258Z,100189.80
2018-01-02T09:27:34.730Z,100187.29
2018-01-02T09:30:02.294Z,100192.33
2018-01-02T09:32:29.762Z,100195.59
2018-01-02T09:34:57.229Z,100201.20
2018-01-02T09:37:24.732Z,100199.26
2018-01-02T09:39:52.336Z,100192.84
2018-01-02T09:42:19.822Z,100201.48
2018-01-02T09:44:47.304Z,100205.84
2018-01-02T09:47:14.764Z,100211.76
2018-01-02T09:49:42.246Z,100208.12
2018-01-02T09:52:09.709Z,100220.43
2018-01-02T09:54:37.170Z,100219.77
2018-01-02T09:57:04.627Z,100223.54
2018-01-02T09:59:32.149Z,100214.61
2018-01-02T10:01:59.608Z,100216.37
2018-01-02T10:04:27.159Z,100217.77
2018-01-02T10:06:54.686Z,100221.80
2018-01-02T10:09:22.151Z,100239.22
2018-01-02T10:11:49.594Z,100232.16
2018-01-02T10:14:17.130Z,100240.70
2018-01-02T10:16:44.594Z,100238.45
2018-01-02T10:19:12.035Z,100249.32
2018-01-02T10:21:39.510Z,100246.27
2018-01-02T10:24:06.967Z,100243.03
2018-01-02T10:26:34.436Z,100242.44
2018-01-02T10:29:01.967Z,100249.30
2018-01-02T10:31:29.464Z,100248.98
2018-01-02T10:33:56.990Z,100240.61
2018-01-02T10:36:24.470Z,100241.20
2018-01-02T10:38:51.970Z,100231.28
2018-01-02T10:41:19.452Z,100223.93
2018-01-02T10:43:46.922Z,100217.94
2018-01-02T10:46:14.479Z,100226.97
2018-01-02T10:48:41.951Z,100219.38
2018-01-02T10:51:09.403Z,100221.04
2018-01-02T10:53:36.915Z,100225.45
2018-01-02T10:56:04.944Z,100230.39
2018-01-02T10:58:32.477Z,100233.77
2018-01-02T11:01:01.808Z,100234.18
2018-01-02T11:03:30.614Z,100239.16
2018-01-02T11:05:58.104Z,100238.27
2018-01-02T11:08:25.588Z,100250.55
2018-01-02T11:10:59.262Z,100246.63
2018-01-02T11:13:32.342Z,100241.67
2018-01-02T11:15:59.831Z,100242.34
2018-01-02T11:18:27.476Z,100243.66
2018-01-02T11:20:55.006Z,100241.36
2018-01-02T11:23:22.466Z,100245.88
2018-01-02T11:25:50.252Z,100249.74
2018-01-02T11:28:17.827Z,100254.42
2018-01-02T11:30:45.386Z,100251.05
2018-01-02T11:33:13.047Z,100247.08
2018-01-02T11:35:40.549Z,100253.16
2018-01-02T11:38:10.817Z,100247.30
2018-01-02T11:40:38.412Z,100246.67
2018-01-02T11:43:05.872Z,100249.63
2018-01-02T11:45:33.348Z,100249.67
2018-01-02T11:48:00.793Z,100251.53
2018-01-02T11:50:28.276Z,100258.16
2018-01-02T11:52:55.723Z,100253.41
2018-01-02T11:55:23.179Z,100264.11
2018-01-02T11:57:50.647Z,100268.36
2018-01-02T12:00:18.127Z,100271.81
2018-01-02T12:02:45.607Z,100268.21
2018-01-02T12:05:13.161Z,100276.05
2018-01-02T12:07:40.714Z,100280.02
2018-01-02T12:10:08.179Z,100280.80
2018-01-02T12:12:35.730Z,100283.44
2018-01-02T12:15:03.197Z,100266.77
2018-01-02T12:17:30.760Z,100261.41
2018-01-02T12:19:58.212Z,100264.09
2018-01-02T12:22:25.703Z,100262.03
2018-01-02T12:24:53.154Z,100263.50
2018-01-02T12:27:20.628Z,100254.27
2018-01-02T12:29:48.080Z,100247.80
2018-01-02T12:32:15.739Z,100243.07
2018-01-02T12:34:43.202Z,100238.59
2018-01-02T12:37:10.755Z,100235.86
2018-01-02T12:39:38.262Z,100243.47
2018-01-02T12:42:05.708Z,100231.02
2018-01-02T12:44:33.187Z,100223.05
2018-01-02T12:47:00.707Z,100221.81
2018-01-02T12:49:28.202Z,100210.19
2018-01-02T12:51:55.700Z,100210.36
2018-01-02T12:54:23.216Z,100213.72
2018-01-02T12:56:50.682Z,100211.75
2018-01-02T12:59:18.222Z,100211.80
2018-01-02T13:01:45.682Z,100209.14
2018-01-02T13:04:13.184Z,100216.20
2018-01-02T13:06:40.648Z,100213.02
2018-01-02T13:09:08.110Z,100225.58
2018-01-02T13:11:35.638Z,100226.94
2018-01-02T13:14:03.104Z,100226.03
2018-01-02T13:16:30.570Z,100225.34
2018-01-02T13:18:58.034Z,100233.58
2018-01-02T13:21:25.499Z,100235.52
2018-01-02T13:23:52.950Z,100230.55
2018-01-02T13:26:20.446Z,100228.68
2018-01-02T13:28:47.923Z,100239.09
2018-01-02T13:31:15.400Z,100239.22
2018-01-02T13:33:42.872Z,100241.88
2018-01-02T13:36:10.374Z,100239.41
2018-01-02T13:38:38.159Z,100246.78
2018-01-02T13:41:06.005Z,100243.45
2018-01-02T13:43:33.688Z,100255.09
2018-01-02T13:46:01.433Z,100250.73
2018-01-02T13:48:29.148Z,100236.61
2018-01-02T13:50:58.013Z,100235.41
2018-01-02T13:53:25.792Z,100244.28
2018-01-02T13:55:54.034Z,100248.70
2018-01-02T13:58:22.570Z,100249.08
2018-01-02T14:00:50.112Z,100236.91
2018-01-02T14:03:17.937Z,100249.27
2018-01-02T14:05:46.692Z,100243.59
2018-01-02T14:08:14.141Z,100248.98
2018-01-02T14:10:41.602Z,100243.66
2018-01-02T14:13:09.040Z,100238.45
2018-01-02T14:15:36.538Z,100235.94
2018-01-02T14:18:03.971Z,100232.08
2018-01-02T14:20:31.486Z,100238.00
2018-01-02T14:22:58.969Z,100238.38
2018-01-02T14:25:26.468Z,100244.61
2018-01-02T14:27:53.921Z,100256.16
2018-01-02T14:30:21.405Z,100232.41
2018-01-02T14:32:48.947Z,100244.03
2018-01-02T14:35:16.439Z,100243.07
2018-01-02T14:37:43.900Z,100247.67
2018-01-02T14:40:11.349Z,100252.48
2018-01-02T14:42:38.839Z,100256.28
2018-01-02T14:45:06.273Z,100259.61
2018-01-02T14:47:33.737Z,100248.11
2018-01-02T14:50:01.285Z,100253.43
2018-01-02T14:52:28.822Z,100244.16
2018-01-02T14:54:56.283Z,100244.37
2018-01-02T14:57:23.747Z,100251.83
2018-01-02T14:59:51.191Z,100249.30
2018-01-02T15:02:19.022Z,100245.61
2018-01-02T15:04:46.460Z,100248.88
2018-01-02T15:07:14.085Z,100241.72
2018-01-02T15:09:41.521Z,100233.92
2018-01-02T15:12:08.969Z,100228.85
2018-01-02T15:14:36.424Z,100222.94
2018-01-02T15:17:03.871Z,100214.28
2018-01-02T15:19:31.378Z,100199.71
2018-01-02T15:21:58.814Z,100206.69
2018-01-02T15:24:26.343Z,100207.10
2018-01-02T15:26:53.851Z,100199.95
2018-01-02T15:29:21.312Z,100198.36
2018-01-02T15:31:48.850Z,100192.72
2018-01-02T15:34:16.320Z,100189.81
2018-01-02T15:36:43.765Z,100182.30
2018-01-02T15:39:11.225Z,100195.35
2018-01-02T15:41:38.676Z,100199.23
2018-01-02T15:44:06.128Z,100208.42
2018-01-02T15:46:33.552Z,100219.02
2018-01-02T15:49:01.112Z,100221.75
2018-01-02T15:51:28.566Z,100213.52
2018-01-02T15:53:56.006Z,100209.78
2018-01-02T15:56:23.507Z,100213.18
2018-01-02T15:58:50.987Z,100210.37
2018-01-02T16:01:18.495Z,100213.26
2018-01-02T16:03:46.061Z,100214.05
2018-01-02T16:06:13.617Z,100210.33
2018-01-02T16:08:41.081Z,100221.33
2018-01-02T16:11:08.565Z,100220.20
2018-01-02T16:13:36.013Z,100217.92
2018-01-02T16:16:03.501Z,100208.63
2018-01-02T16:18:31.013Z,100212.68
2018-01-02T16:20:58.474Z,100216.20
2018-01-02T16:23:25.920Z,100219.31
2018-01-02T16:25:53.398Z,100221.97
2018-01-02T16:28:20.840Z,100226.36
2018-01-02T16:30:48.332Z,100230.28
2018-01-02T16:33:15.827Z,100223.30
2018-01-02T16:35:43.275Z,100223.65
2018-01-02T16:38:10.747Z,100229.88
2018-01-02T16:40:38.189Z,100228.34
2018-01-02T16:43:05.687Z,100236.53
2018-01-02T16:45:33.172Z,100224.78
2018-01-02T16:48:00.629Z,100224.80
2018-01-02T16:50:28.070Z,100217.48
2018-01-02T16:52:55.550Z,100221.47
2018-01-02T16:55:22.998Z,100219.30
2018-01-02T16:57:50.461Z,100217.45
2018-01-02T17:00:17.918Z,100211.73
2018-01-02T17:02:45.367Z,100205.77
2018-01-02T17:05:12.866Z,100209.73
2018-01-02T17:07:40.310Z,100200.70
2018-01-02T17:10:07.771Z,100198.60
2018-01-02T17:12:35.213Z,100187.08
2018-01-02T17:15:02.696Z,100182.53
2018-01-02T17:17:30.167Z,100181.09
2018-01-02T17:19:57.662Z,100176.40
2018-01-02T17:22:25.106Z,100173.50
2018-01-02T17:24:52.618Z,100161.16
2018-01-02T17:27:20.086Z,100157.13
2018-01-02T17:29:47.553Z,100151.42
2018-01-02T17:32:14.999Z,100140.66
2018-01-02T17:34:42.529Z,100141.77
2018-01-02T17:37:09.997Z,100137.77
2018-01-02T17:39:37.484Z,100133.75
2018-01-02T17:42:05.033Z,100133.98
2018-01-02T17:44:32.680Z,100132.14
2018-01-02T17:47:00.141Z,100127.41
2018-01-02T17:49:27.692Z,100133.55
2018-01-02T17:51:55.166Z,100128.85
2018-01-02T17:54:22.664Z,100121.66
2018-01-02T17:56:50.194Z,100113.73
2018-01-02T17:59:17.651Z,100116.76
2018-01-02T18:01:45.147Z,100107.00
2018-01-02T18:04:12.587Z,100102.86
2018-01-02T18:06:40.074Z,100102.64
2018-01-02T18:09:07.617Z,100097.22
2018-01-02T18:11:35.102Z,100089.41
2018-01-02T18:14:02.559Z,100084.80
2018-01-02T18:16:30.043Z,100082.10
2018-01-02T18:18:57.528Z,100065.27
2018-01-02T18:21:25.029Z,100050.17
2018-01-02T18:23:52.493Z,100039.97
2018-01-02T18:26:19.920Z,100037.50
2018-01-02T18:28:47.469Z,100037.25
2018-01-02T18:31:14.906Z,100042.76
2018-01-02T18:33:42.381Z,100038.90
2018-01-02T18:36:09.825Z,100031.55
2018-01-02T18:38:37.316Z,100035.81
2018-01-02T18:41:04.908Z,100030.67
2018-01-02T18:43:32.370Z,100027.98
2018-01-02T18:45:59.846Z,100023.17
2018-01-02T18:48:27.302Z,100017.52
2018-01-02T18:50:54.736Z,100021.92
2018-01-02T18:53:22.215Z,100024.30
2018-01-02T18:55:49.698Z,100020.86
2018-01-02T18:58:17.149Z,100009.75
2018-01-02T19:00:44.661Z,100010.60
2018-01-02T19:03:12.218Z,100006.67
2018-01-02T19:05:39.707Z,100003.03
2018-01-02T19:08:07.170Z,100011.45
2018-01-02T19:10:34.633Z,100021.41
2018-01-02T19:13:02.089Z,100018.77
2018-01-02T19:15:29.551Z,100037.98
2018-01-02T19:17:57.012Z,100030.02
2018-01-02T19:20:24.478Z,100030.80
2018-01-02T19:22:51.916Z,100031.48
2018-01-02T19:25:19.372Z,100030.91
2018-01-02T19:27:46.886Z,100031.48
2018-01-02T19:30:14.371Z,100019.35
2018-01-02T19:32:41.918Z,100020.16
2018-01-02T19:35:09.375Z,100020.33
2018-01-02T19:37:36.917Z,100012.63
2018-01-02T19:40:05.119Z,100006.69
2018-01-02T19:42:32.586Z,100002.16
2018-01-02T19:45:00.114Z,99997.36
2018-01-02T19:47:27.696Z,99978.13
2018-01-02T19:49:55.160Z,99973.14
2018-01-02T19:52:22.623Z,99963.81
2018-01-02T19:54:50.058Z,99953.11
2018-01-02T19:57:17.527Z,99948.67
2018-01-02T19:59:44.976Z,99942.48
2018-01-02T20:02:12.475Z,99942.39
2018-01-02T20:04:39.986Z,99933.88
2018-01-02T20:07:07.493Z,99939.71
2018-01-02T20:09:34.930Z,99939.23
2018-01-02T20:12:02.411Z,99931.85
2018-01-02T20:14:29.854Z,99927.72
2018-01-02T20:16:57.301Z,99927.81
2018-01-02T20:19:25.170Z,99910.63
2018-01-02T20:21:52.610Z,99908.92
2018-01-02T20:24:20.057Z,99897.53
2018-01-02T20:26:47.487Z,99884.69
2018-01-02T20:29:14.979Z,99895.77
2018-01-02T20:31:42.448Z,99893.48
2018-01-02T20:34:09.989Z,99887.52
2018-01-02T20:36:37.498Z,99886.61
2018-01-02T20:39:05.067Z,99885.99
2018-01-02T20:41:32.609Z,99877.61
2018-01-02T20:44:00.954Z,99872.11
2018-01-02T20:46:28.466Z,99879.31
2018-01-02T20:48:56.038Z,99871.11
2018-01-02T20:51:23.615Z,99867.20
2018-01-02T20:53:51.132Z,99857.02
2018-01-02T20:56:18.599Z,99860.18
2018-01-02T20:58:46.105Z,99855.34
2018-01-02T21:01:13.682Z,99845.95
2018-01-02T21:03:41.123Z,99844.41
2018-01-02T21:06:08.588Z,99839.48
2018-01-02T21:08:36.099Z,99826.64
2018-01-02T21:11:03.632Z,99824.83
2018-01-02T21:13:31.144Z,99821.60
2018-01-02T21:15:58.685Z,99817.41
2018-01-02T21:18:26.167Z,99816.95
2018-01-02T21:20:53.695Z,99810.22
2018-01-02T21:23:21.154Z,99807.36
2018-01-02T21:25:48.592Z,99798.20
2018-01-02T21:28:16.048Z,99807.98
2018-01-02T21:30:43.498Z,99800.29
2018-01-02T21:33:10.959Z,99806.84
2018-01-02T21:35:38.410Z,99795.45
2018-01-02T21:38:05.962Z,99780.92
2018-01-02T21:40:33.395Z,99772.42
2018-01-02T21:43:00.875Z,99769.57
2018-01-02T21:45:28.331Z,99759.33
2018-01-02T21:47:55.890Z,99753.61
2018-01-02T21:50:23.411Z,99748.73
2018-01-02T21:52:50.865Z,99751.16
2018-01-02T21:55:18.382Z,99743.44
2018-01-02T21:57:45.989Z,99732.94
2018-01-02T22:00:13.525Z,99721.09
2018-01-02T22:02:41.098Z,99723.70
2018-01-02T22:05:08.611Z,99715.70
2018-01-02T22:07:36.154Z,99705.84
2018-01-02T22:10:03.850Z,99706.51
2018-01-02T22:12:31.378Z,99697.09
2018-01-02T22:14:58.943Z,99693.85
2018-01-02T22:17:26.457Z,99691.70
2018-01-02T22:19:53.994Z,99678.01
2018-01-02T22:22:21.491Z,99665.55
2018-01-02T22:24:49.041Z,99663.62
2018-01-02T22:27:16.585Z,99651.73
2018-01-02T22:29:44.138Z,99650.95
2018-01-02T22:32:11.661Z,99638.69
2018-01-02T22:34:39.159Z,99627.25
2018-01-02T22:37:06.600Z,99623.56
2018-01-02T22:39:34.030Z,99613.69
2018-01-02T22:42:01.507Z,99618.13
2018-01-02T22:44:28.946Z,99608.95
2018-01-02T22:46:56.410Z,99594.78
2018-01-02T22:49:23.837Z,99578.91
2018-01-02T22:51:51.346Z,99577.85
2018-01-02T22:54:18.790Z,99569.51
2018-01-02T22:56:46.251Z,99564.67
2018-01-02T22:59:13.682Z,99544.34
2018-01-02T23:01:41.139Z,99538.92
2018-01-02T23:04:08.606Z,99521.41
2018-01-02T23:06:36.069Z,99524.38
2018-01-02T23:09:03.583Z,99520.45
2018-01-02T23:11:31.019Z,99509.02
2018-01-02T23:13:58.499Z,99504.42
2018-01-02T23:16:25.930Z,99496.97
2018-01-02T23:18:53.390Z,99489.78
2018-01-02T23:21:20.858Z,99482.61
2018-01-02T23:23:48.324Z,99465.03
2018-01-02T23:26:15.795Z,99460.98
2018-01-02T23:28:43.281Z,99453.97
2018-01-02T23:31:10.727Z,99443.37
2018-01-02T23:33:38.198Z,99444.91
2018-01-02T23:36:06.103Z,99436.03
2018-01-02T23:38:33.538Z,99421.71
2018-01-02T23:41:00.988Z,99421.38
2018-01-02T23:43:28.443Z,99408.31
2018-01-02T23:45:55.923Z,99399.79
2018-01-02T23:48:23.355Z,99400.05
2018-01-02T23:50:50.814Z,99395.33
2018-01-02T23:53:18.246Z,99381.22
2018-01-02T23:55:45.715Z,99379.72
2018-01-02T23:58:13.145Z,99370.34
